Fort Severn Airport
CYER : rendu visible

Aérodrome :











RETROUVEZ-NOUS SUR...

 
LOGIN :

S'inscrire | Disclaimer

   EN    FR    IT 

 









Légende :    VFR   VFR Marginal   IFR   IFR Intensif   IFR Très Intensif
Visi : 
Plafond : 
>= 8 km
>= 3000ft
5 à 8 km
1000 à 3000 ft
1500m à 5 km
500 à 1000 ft
800 à 1500m
200 à 500 ft
< 800m
< 200 ft
Symboles :   Orages  Brouillard  Fortes neiges  Fortes précipitations  Vent > 20 kt






- Altitude de l'aérodrome : 48 ft
- Code IATA : YER


CYER - Fort Severn

DERNIER METAR :
  • 181700Z AUTO 05007KT 9SM SCT012 BKN100 M18/M20 A3036 RMK SLP283

METARs EXPIRÉS :
  • 181648Z AUTO 05008KT 9SM SCT012 M18/M20 A3036 RMK SLP285
  • 181628Z AUTO 03004KT 9SM OVC012 M20/M21 A3037 RMK SLP287
  • 181600Z AUTO 01003KT 9SM BKN009 M20/M22 A3038 RMK SLP290
  • 181500Z AUTO 05002KT 9SM BKN009 BKN060 M21/M22 A3038 RMK SLP290
  • 181456Z AUTO 04003KT 9SM BKN009 BKN060 M21/M23 A3038 RMK SLP290

TAF AMD TAF CYER
Valide du 18 à 15h jusqu'au 18 à 20h UTC


181512Z 1815/1820 VRB03KT 5SM -SN BKN009 OVC060
TEMPO 1815/1818 P6SM NSW FEW009 OVC060
PROB40 1815/1818 BKN008
FM181800 04008KT P6SM BKN050
PROB30 1818/1820 BKN008 RMK FCST BASED ON AUTO OBS. NXT FCST WILL BE ISSUED AT 190945Z



MET'MAP, la Météo Aéronautique d'un coup d'oeil ! - Copyright ORBIFLY Décembre 2007 - Disclaimer

ORBIFLY MET'MAP TEAM :

Programmation & Développement : Alexandra Zaïnal
Sur une idée originale de : Baudouin d'Aumeries
Assistance à la programmation : Marc-Olivier Méhu
Soutien technique & logistique : Manuel Goepfert

Contact : metmap@orbifly.com




SOURCES & CREDITS :

   NOAA       Earth
Advisory